sensor_id;sensor_type;location;lat;lon;timestamp;temperature;humidity
23731;DHT22;12046;44.702;10.622;2023-08-31T00:09:30;20.20;99.90
23731;DHT22;12046;44.702;10.622;2023-08-31T00:24:01;20.20;99.90
23731;DHT22;12046;44.702;10.622;2023-08-31T00:37:44;20.20;99.90
23731;DHT22;12046;44.702;10.622;2023-08-31T00:43:31;20.10;99.90
23731;DHT22;12046;44.702;10.622;2023-08-31T00:45:57;20.10;99.90
23731;DHT22;12046;44.702;10.622;2023-08-31T00:48:24;20.10;99.90
23731;DHT22;12046;44.702;10.622;2023-08-31T00:50:50;20.10;99.90
23731;DHT22;12046;44.702;10.622;2023-08-31T00:53:17;20.10;99.90
23731;DHT22;12046;44.702;10.622;2023-08-31T02:07:12;19.60;99.90
23731;DHT22;12046;44.702;10.622;2023-08-31T02:16:16;19.50;99.90
23731;DHT22;12046;44.702;10.622;2023-08-31T02:22:35;19.40;99.90
23731;DHT22;12046;44.702;10.622;2023-08-31T02:34:38;19.30;99.90
23731;DHT22;12046;44.702;10.622;2023-08-31T02:43:28;19.30;99.90
23731;DHT22;12046;44.702;10.622;2023-08-31T03:01:16;19.30;99.90
23731;DHT22;12046;44.702;10.622;2023-08-31T03:03:45;19.20;99.90
23731;DHT22;12046;44.702;10.622;2023-08-31T03:06:12;19.20;99.90
23731;DHT22;12046;44.702;10.622;2023-08-31T03:08:41;19.20;99.90
23731;DHT22;12046;44.702;10.622;2023-08-31T03:11:07;19.20;99.90
23731;DHT22;12046;44.702;10.622;2023-08-31T03:13:36;19.20;99.90
23731;DHT22;12046;44.702;10.622;2023-08-31T03:16:02;19.20;99.90
23731;DHT22;12046;44.702;10.622;2023-08-31T03:18:31;19.30;99.90
23731;DHT22;12046;44.702;10.622;2023-08-31T03:23:59;19.30;99.90
23731;DHT22;12046;44.702;10.622;2023-08-31T03:26:28;19.20;99.90
23731;DHT22;12046;44.702;10.622;2023-08-31T03:28:54;19.20;99.90
23731;DHT22;12046;44.702;10.622;2023-08-31T03:31:20;19.20;99.90
23731;DHT22;12046;44.702;10.622;2023-08-31T03:33:50;19.10;99.90
23731;DHT22;12046;44.702;10.622;2023-08-31T03:36:19;19.10;99.90
23731;DHT22;12046;44.702;10.622;2023-08-31T03:38:44;19.00;99.90
23731;DHT22;12046;44.702;10.622;2023-08-31T03:41:10;18.90;99.90
23731;DHT22;12046;44.702;10.622;2023-08-31T03:43:38;18.80;99.90
23731;DHT22;12046;44.702;10.622;2023-08-31T03:46:07;18.80;99.90
23731;DHT22;12046;44.702;10.622;2023-08-31T03:48:33;18.80;99.90
23731;DHT22;12046;44.702;10.622;2023-08-31T03:50:58;18.70;99.90
23731;DHT22;12046;44.702;10.622;2023-08-31T03:53:24;18.70;99.90
23731;DHT22;12046;44.702;10.622;2023-08-31T03:55:50;18.60;99.90
23731;DHT22;12046;44.702;10.622;2023-08-31T03:58:19;18.50;99.90
23731;DHT22;12046;44.702;10.622;2023-08-31T04:00:48;18.40;99.90
23731;DHT22;12046;44.702;10.622;2023-08-31T04:03:20;18.40;99.90
23731;DHT22;12046;44.702;10.622;2023-08-31T04:05:46;18.30;99.90
23731;DHT22;12046;44.702;10.622;2023-08-31T04:08:15;18.30;99.90
23731;DHT22;12046;44.702;10.622;2023-08-31T04:10:40;18.30;99.90
23731;DHT22;12046;44.702;10.622;2023-08-31T04:13:08;18.20;99.90
23731;DHT22;12046;44.702;10.622;2023-08-31T04:15:37;18.10;99.90
23731;DHT22;12046;44.702;10.622;2023-08-31T04:18:03;18.10;99.90
23731;DHT22;12046;44.702;10.622;2023-08-31T04:20:29;18.10;99.90
23731;DHT22;12046;44.702;10.622;2023-08-31T04:22:54;18.10;99.90
23731;DHT22;12046;44.702;10.622;2023-08-31T04:25:20;18.00;99.90
23731;DHT22;12046;44.702;10.622;2023-08-31T04:27:46;18.00;99.90
23731;DHT22;12046;44.702;10.622;2023-08-31T04:30:14;18.00;99.90
23731;DHT22;12046;44.702;10.622;2023-08-31T04:32:41;18.00;99.90
23731;DHT22;12046;44.702;10.622;2023-08-31T04:35:08;17.90;99.90
23731;DHT22;12046;44.702;10.622;2023-08-31T04:37:36;17.90;99.90
23731;DHT22;12046;44.702;10.622;2023-08-31T04:40:02;17.90;99.90
23731;DHT22;12046;44.702;10.622;2023-08-31T04:42:32;17.90;99.90
23731;DHT22;12046;44.702;10.622;2023-08-31T04:44:59;17.90;99.90
23731;DHT22;12046;44.702;10.622;2023-08-31T04:47:25;18.00;99.90
23731;DHT22;12046;44.702;10.622;2023-08-31T04:49:51;17.90;99.90
23731;DHT22;12046;44.702;10.622;2023-08-31T04:52:17;18.00;99.90
23731;DHT22;12046;44.702;10.622;2023-08-31T04:54:48;18.00;99.90
23731;DHT22;12046;44.702;10.622;2023-08-31T04:57:14;18.00;99.90
23731;DHT22;12046;44.702;10.622;2023-08-31T04:59:42;18.00;99.90
23731;DHT22;12046;44.702;10.622;2023-08-31T05:02:08;18.00;99.90
23731;DHT22;12046;44.702;10.622;2023-08-31T05:04:36;18.10;99.90
23731;DHT22;12046;44.702;10.622;2023-08-31T05:07:05;18.10;99.90
23731;DHT22;12046;44.702;10.622;2023-08-31T05:09:31;18.10;99.90
23731;DHT22;12046;44.702;10.622;2023-08-31T05:12:03;18.20;99.90
23731;DHT22;12046;44.702;10.622;2023-08-31T05:14:31;18.20;99.90
23731;DHT22;12046;44.702;10.622;2023-08-31T05:16:57;18.30;99.90
23731;DHT22;12046;44.702;10.622;2023-08-31T05:19:26;18.40;99.90
23731;DHT22;12046;44.702;10.622;2023-08-31T05:21:54;18.40;99.90
23731;DHT22;12046;44.702;10.622;2023-08-31T05:24:20;18.50;99.90
23731;DHT22;12046;44.702;10.622;2023-08-31T05:26:49;18.60;99.90
23731;DHT22;12046;44.702;10.622;2023-08-31T05:29:15;18.70;99.90
23731;DHT22;12046;44.702;10.622;2023-08-31T05:31:41;18.80;99.90
23731;DHT22;12046;44.702;10.622;2023-08-31T05:34:09;18.90;99.90
23731;DHT22;12046;44.702;10.622;2023-08-31T05:36:36;19.10;99.90
23731;DHT22;12046;44.702;10.622;2023-08-31T05:39:02;19.10;99.90
23731;DHT22;12046;44.702;10.622;2023-08-31T05:41:28;19.20;99.90
23731;DHT22;12046;44.702;10.622;2023-08-31T05:43:54;19.30;99.90
23731;DHT22;12046;44.702;10.622;2023-08-31T05:46:19;19.30;99.90
23731;DHT22;12046;44.702;10.622;2023-08-31T05:48:45;19.40;99.90
23731;DHT22;12046;44.702;10.622;2023-08-31T05:51:11;19.40;99.90
23731;DHT22;12046;44.702;10.622;2023-08-31T05:53:37;19.40;99.90
23731;DHT22;12046;44.702;10.622;2023-08-31T05:56:03;19.40;99.90
23731;DHT22;12046;44.702;10.622;2023-08-31T05:58:35;19.40;99.90
23731;DHT22;12046;44.702;10.622;2023-08-31T06:01:03;19.40;99.90
23731;DHT22;12046;44.702;10.622;2023-08-31T06:03:29;19.30;99.90
23731;DHT22;12046;44.702;10.622;2023-08-31T06:05:56;19.30;99.90
23731;DHT22;12046;44.702;10.622;2023-08-31T06:08:22;19.30;99.90
23731;DHT22;12046;44.702;10.622;2023-08-31T06:10:48;19.30;99.90
23731;DHT22;12046;44.702;10.622;2023-08-31T06:13:15;19.30;99.90
23731;DHT22;12046;44.702;10.622;2023-08-31T06:15:41;19.30;99.90
23731;DHT22;12046;44.702;10.622;2023-08-31T06:18:07;19.40;99.90
23731;DHT22;12046;44.702;10.622;2023-08-31T06:20:33;19.40;99.90
23731;DHT22;12046;44.702;10.622;2023-08-31T06:22:59;19.50;99.90
23731;DHT22;12046;44.702;10.622;2023-08-31T06:25:25;19.50;99.90
23731;DHT22;12046;44.702;10.622;2023-08-31T06:27:51;19.60;99.90
23731;DHT22;12046;44.702;10.622;2023-08-31T06:30:17;19.70;99.90
23731;DHT22;12046;44.702;10.622;2023-08-31T06:32:45;19.80;99.90
23731;DHT22;12046;44.702;10.622;2023-08-31T06:35:12;20.00;99.90
23731;DHT22;12046;44.702;10.622;2023-08-31T06:37:39;20.10;99.90
23731;DHT22;12046;44.702;10.622;2023-08-31T06:40:09;20.20;99.90
23731;DHT22;12046;44.702;10.622;2023-08-31T06:42:36;20.40;99.90
23731;DHT22;12046;44.702;10.622;2023-08-31T06:45:03;20.50;99.90
23731;DHT22;12046;44.702;10.622;2023-08-31T06:47:31;20.60;99.90
23731;DHT22;12046;44.702;10.622;2023-08-31T06:49:57;20.80;99.90
23731;DHT22;12046;44.702;10.622;2023-08-31T06:52:26;20.90;99.90
23731;DHT22;12046;44.702;10.622;2023-08-31T06:54:52;21.10;99.90
23731;DHT22;12046;44.702;10.622;2023-08-31T06:57:25;21.30;99.90
23731;DHT22;12046;44.702;10.622;2023-08-31T06:59:52;21.50;99.90
23731;DHT22;12046;44.702;10.622;2023-08-31T07:02:18;21.70;99.90
23731;DHT22;12046;44.702;10.622;2023-08-31T07:04:45;22.00;99.90
23731;DHT22;12046;44.702;10.622;2023-08-31T07:07:14;22.20;99.90
23731;DHT22;12046;44.702;10.622;2023-08-31T07:09:43;22.40;99.90
23731;DHT22;12046;44.702;10.622;2023-08-31T07:12:09;22.60;99.90
23731;DHT22;12046;44.702;10.622;2023-08-31T07:14:35;22.70;99.90
23731;DHT22;12046;44.702;10.622;2023-08-31T07:17:01;22.80;99.90
23731;DHT22;12046;44.702;10.622;2023-08-31T07:19:27;22.90;99.90
23731;DHT22;12046;44.702;10.622;2023-08-31T07:21:53;23.00;99.90
23731;DHT22;12046;44.702;10.622;2023-08-31T07:24:23;23.20;99.90
23731;DHT22;12046;44.702;10.622;2023-08-31T07:26:50;23.20;99.90
23731;DHT22;12046;44.702;10.622;2023-08-31T07:29:16;23.40;99.90
23731;DHT22;12046;44.702;10.622;2023-08-31T07:31:42;23.50;99.90
23731;DHT22;12046;44.702;10.622;2023-08-31T07:34:08;23.70;99.90
23731;DHT22;12046;44.702;10.622;2023-08-31T07:36:34;23.90;99.90
23731;DHT22;12046;44.702;10.622;2023-08-31T07:39:00;24.00;99.90
23731;DHT22;12046;44.702;10.622;2023-08-31T07:41:25;24.10;99.90
23731;DHT22;12046;44.702;10.622;2023-08-31T07:43:51;24.30;99.90
23731;DHT22;12046;44.702;10.622;2023-08-31T07:46:18;24.40;99.90
23731;DHT22;12046;44.702;10.622;2023-08-31T07:48:43;24.60;99.90
23731;DHT22;12046;44.702;10.622;2023-08-31T07:51:09;24.70;99.90
23731;DHT22;12046;44.702;10.622;2023-08-31T07:53:35;24.80;99.90
23731;DHT22;12046;44.702;10.622;2023-08-31T07:56:00;24.90;99.90
23731;DHT22;12046;44.702;10.622;2023-08-31T07:58:26;25.10;99.90
23731;DHT22;12046;44.702;10.622;2023-08-31T08:00:54;25.20;99.90
23731;DHT22;12046;44.702;10.622;2023-08-31T08:03:23;25.30;99.60
23731;DHT22;12046;44.702;10.622;2023-08-31T08:05:49;25.50;99.40
23731;DHT22;12046;44.702;10.622;2023-08-31T08:08:15;25.60;99.10
23731;DHT22;12046;44.702;10.622;2023-08-31T08:10:41;25.70;98.90
23731;DHT22;12046;44.702;10.622;2023-08-31T08:13:09;25.80;98.60
23731;DHT22;12046;44.702;10.622;2023-08-31T08:15:34;25.90;98.50
23731;DHT22;12046;44.702;10.622;2023-08-31T08:18:00;26.00;98.20
23731;DHT22;12046;44.702;10.622;2023-08-31T08:20:27;26.10;98.00
23731;DHT22;12046;44.702;10.622;2023-08-31T08:22:54;26.30;97.80
23731;DHT22;12046;44.702;10.622;2023-08-31T08:25:20;26.40;97.60
23731;DHT22;12046;44.702;10.622;2023-08-31T08:27:46;26.50;97.20
23731;DHT22;12046;44.702;10.622;2023-08-31T08:30:13;26.60;97.00
23731;DHT22;12046;44.702;10.622;2023-08-31T08:32:39;26.70;96.80
23731;DHT22;12046;44.702;10.622;2023-08-31T08:35:05;26.80;96.60
23731;DHT22;12046;44.702;10.622;2023-08-31T08:37:31;26.90;96.40
23731;DHT22;12046;44.702;10.622;2023-08-31T08:40:00;27.00;96.20
23731;DHT22;12046;44.702;10.622;2023-08-31T08:42:26;27.10;96.10
23731;DHT22;12046;44.702;10.622;2023-08-31T08:44:56;27.20;95.60
23731;DHT22;12046;44.702;10.622;2023-08-31T08:47:22;27.30;95.40
23731;DHT22;12046;44.702;10.622;2023-08-31T08:49:48;27.30;95.20
23731;DHT22;12046;44.702;10.622;2023-08-31T08:52:15;27.40;95.00
23731;DHT22;12046;44.702;10.622;2023-08-31T08:54:41;27.40;94.90
23731;DHT22;12046;44.702;10.622;2023-08-31T08:57:07;27.50;94.40
23731;DHT22;12046;44.702;10.622;2023-08-31T08:59:33;27.60;94.20
23731;DHT22;12046;44.702;10.622;2023-08-31T09:01:59;27.60;94.00
23731;DHT22;12046;44.702;10.622;2023-08-31T09:04:25;27.70;94.00
23731;DHT22;12046;44.702;10.622;2023-08-31T09:06:51;27.80;93.80
23731;DHT22;12046;44.702;10.622;2023-08-31T09:09:17;27.90;93.20
23731;DHT22;12046;44.702;10.622;2023-08-31T09:11:44;27.90;92.70
23731;DHT22;12046;44.702;10.622;2023-08-31T09:14:17;28.00;92.60
23731;DHT22;12046;44.702;10.622;2023-08-31T09:16:50;28.10;92.40
23731;DHT22;12046;44.702;10.622;2023-08-31T09:19:21;28.30;92.40
23731;DHT22;12046;44.702;10.622;2023-08-31T09:21:52;28.40;92.10
23731;DHT22;12046;44.702;10.622;2023-08-31T09:24:18;28.60;91.60
23731;DHT22;12046;44.702;10.622;2023-08-31T09:26:50;28.70;91.10
23731;DHT22;12046;44.702;10.622;2023-08-31T09:29:17;28.80;91.00
23731;DHT22;12046;44.702;10.622;2023-08-31T09:31:43;28.90;90.40
23731;DHT22;12046;44.702;10.622;2023-08-31T09:34:10;29.10;90.20
23731;DHT22;12046;44.702;10.622;2023-08-31T09:36:37;29.30;90.20
23731;DHT22;12046;44.702;10.622;2023-08-31T09:39:03;29.50;90.20
23731;DHT22;12046;44.702;10.622;2023-08-31T09:41:31;29.80;90.10
23731;DHT22;12046;44.702;10.622;2023-08-31T09:43:59;30.20;89.70
23731;DHT22;12046;44.702;10.622;2023-08-31T09:46:39;30.80;88.70
23731;DHT22;12046;44.702;10.622;2023-08-31T09:49:06;31.70;86.90
23731;DHT22;12046;44.702;10.622;2023-08-31T09:51:33;32.80;84.80
23731;DHT22;12046;44.702;10.622;2023-08-31T09:54:03;33.90;81.70
23731;DHT22;12046;44.702;10.622;2023-08-31T09:56:33;34.70;79.30
23731;DHT22;12046;44.702;10.622;2023-08-31T09:59:00;35.10;77.50
23731;DHT22;12046;44.702;10.622;2023-08-31T10:01:26;35.10;76.40
23731;DHT22;12046;44.702;10.622;2023-08-31T10:03:52;34.80;74.60
23731;DHT22;12046;44.702;10.622;2023-08-31T10:06:18;34.50;73.60
23731;DHT22;12046;44.702;10.622;2023-08-31T10:08:45;34.10;73.60
23731;DHT22;12046;44.702;10.622;2023-08-31T10:11:12;33.60;74.00
23731;DHT22;12046;44.702;10.622;2023-08-31T10:13:41;33.30;74.70
23731;DHT22;12046;44.702;10.622;2023-08-31T10:16:07;33.00;75.20
23731;DHT22;12046;44.702;10.622;2023-08-31T10:18:34;32.80;75.80
23731;DHT22;12046;44.702;10.622;2023-08-31T10:21:02;32.70;75.90
23731;DHT22;12046;44.702;10.622;2023-08-31T10:23:28;32.70;76.00
23731;DHT22;12046;44.702;10.622;2023-08-31T10:28:21;32.30;75.20
23731;DHT22;12046;44.702;10.622;2023-08-31T10:33:26;31.80;75.90
23731;DHT22;12046;44.702;10.622;2023-08-31T10:35:55;31.60;76.40
23731;DHT22;12046;44.702;10.622;2023-08-31T10:38:26;31.60;77.00
23731;DHT22;12046;44.702;10.622;2023-08-31T10:43:50;32.00;77.20
23731;DHT22;12046;44.702;10.622;2023-08-31T10:51:37;32.60;75.30
23731;DHT22;12046;44.702;10.622;2023-08-31T10:54:06;32.50;74.90
23731;DHT22;12046;44.702;10.622;2023-08-31T10:56:32;32.40;75.40
23731;DHT22;12046;44.702;10.622;2023-08-31T10:59:00;32.40;75.70
23731;DHT22;12046;44.702;10.622;2023-08-31T11:01:52;32.40;75.00
23731;DHT22;12046;44.702;10.622;2023-08-31T11:04:24;32.30;74.20
23731;DHT22;12046;44.702;10.622;2023-08-31T11:07:14;32.10;74.40
23731;DHT22;12046;44.702;10.622;2023-08-31T11:09:40;31.90;73.50
23731;DHT22;12046;44.702;10.622;2023-08-31T11:12:07;31.60;74.00
23731;DHT22;12046;44.702;10.622;2023-08-31T11:14:33;31.40;73.80
23731;DHT22;12046;44.702;10.622;2023-08-31T11:17:00;31.30;74.20
23731;DHT22;12046;44.702;10.622;2023-08-31T11:19:27;31.30;74.70
23731;DHT22;12046;44.702;10.622;2023-08-31T11:21:54;31.20;75.10
23731;DHT22;12046;44.702;10.622;2023-08-31T11:24:20;31.30;75.20
23731;DHT22;12046;44.702;10.622;2023-08-31T11:26:50;31.40;75.10
23731;DHT22;12046;44.702;10.622;2023-08-31T11:29:17;31.50;75.20
23731;DHT22;12046;44.702;10.622;2023-08-31T11:31:43;31.70;74.90
23731;DHT22;12046;44.702;10.622;2023-08-31T11:34:12;31.80;74.80
23731;DHT22;12046;44.702;10.622;2023-08-31T11:36:39;32.00;74.70
23731;DHT22;12046;44.702;10.622;2023-08-31T11:39:06;32.10;74.50
23731;DHT22;12046;44.702;10.622;2023-08-31T11:41:36;32.30;74.60
23731;DHT22;12046;44.702;10.622;2023-08-31T11:44:06;32.30;74.40
23731;DHT22;12046;44.702;10.622;2023-08-31T11:46:32;32.30;74.80
23731;DHT22;12046;44.702;10.622;2023-08-31T11:48:59;32.30;74.80
23731;DHT22;12046;44.702;10.622;2023-08-31T11:51:25;32.40;75.00
23731;DHT22;12046;44.702;10.622;2023-08-31T11:53:55;32.40;74.80
23731;DHT22;12046;44.702;10.622;2023-08-31T11:56:24;32.40;74.90
23731;DHT22;12046;44.702;10.622;2023-08-31T12:10:04;32.40;74.40
23731;DHT22;12046;44.702;10.622;2023-08-31T12:12:30;33.00;73.90
23731;DHT22;12046;44.702;10.622;2023-08-31T12:14:58;33.20;73.90
23731;DHT22;12046;44.702;10.622;2023-08-31T12:17:32;33.00;73.10
23731;DHT22;12046;44.702;10.622;2023-08-31T12:20:03;32.80;73.00
23731;DHT22;12046;44.702;10.622;2023-08-31T12:22:32;32.50;73.00
23731;DHT22;12046;44.702;10.622;2023-08-31T12:24:59;32.20;73.10
23731;DHT22;12046;44.702;10.622;2023-08-31T12:27:24;31.90;73.40
23731;DHT22;12046;44.702;10.622;2023-08-31T12:29:51;31.70;73.80
23731;DHT22;12046;44.702;10.622;2023-08-31T12:32:17;31.50;74.00
23731;DHT22;12046;44.702;10.622;2023-08-31T12:34:46;31.30;74.20
23731;DHT22;12046;44.702;10.622;2023-08-31T12:37:11;31.20;74.50
23731;DHT22;12046;44.702;10.622;2023-08-31T12:39:37;31.00;74.80
23731;DHT22;12046;44.702;10.622;2023-08-31T12:42:04;30.90;75.10
23731;DHT22;12046;44.702;10.622;2023-08-31T12:44:30;30.60;75.30
23731;DHT22;12046;44.702;10.622;2023-08-31T12:46:56;30.40;75.60
23731;DHT22;12046;44.702;10.622;2023-08-31T12:49:22;30.20;76.00
23731;DHT22;12046;44.702;10.622;2023-08-31T12:51:48;30.00;76.30
23731;DHT22;12046;44.702;10.622;2023-08-31T12:54:16;29.80;76.60
23731;DHT22;12046;44.702;10.622;2023-08-31T12:56:41;29.60;76.90
23731;DHT22;12046;44.702;10.622;2023-08-31T12:59:07;29.50;77.30
23731;DHT22;12046;44.702;10.622;2023-08-31T13:01:33;29.40;77.60
23731;DHT22;12046;44.702;10.622;2023-08-31T13:03:59;29.20;77.80
23731;DHT22;12046;44.702;10.622;2023-08-31T13:06:25;29.10;78.00
23731;DHT22;12046;44.702;10.622;2023-08-31T13:09:01;29.00;78.40
23731;DHT22;12046;44.702;10.622;2023-08-31T13:11:34;28.90;78.70
23731;DHT22;12046;44.702;10.622;2023-08-31T13:14:00;28.90;78.90
23731;DHT22;12046;44.702;10.622;2023-08-31T13:16:26;28.80;78.90
23731;DHT22;12046;44.702;10.622;2023-08-31T13:18:57;28.80;78.90
23731;DHT22;12046;44.702;10.622;2023-08-31T13:21:23;28.80;79.00
23731;DHT22;12046;44.702;10.622;2023-08-31T13:23:49;28.80;79.20
23731;DHT22;12046;44.702;10.622;2023-08-31T13:26:17;28.90;79.60
23731;DHT22;12046;44.702;10.622;2023-08-31T13:28:43;29.10;80.10
23731;DHT22;12046;44.702;10.622;2023-08-31T13:31:12;29.20;80.20
23731;DHT22;12046;44.702;10.622;2023-08-31T13:33:38;29.40;80.20
23731;DHT22;12046;44.702;10.622;2023-08-31T13:36:04;29.70;79.90
23731;DHT22;12046;44.702;10.622;2023-08-31T13:38:33;29.90;79.40
23731;DHT22;12046;44.702;10.622;2023-08-31T13:40:59;30.10;79.00
23731;DHT22;12046;44.702;10.622;2023-08-31T13:43:25;30.30;78.60
23731;DHT22;12046;44.702;10.622;2023-08-31T13:45:54;30.30;78.20
23731;DHT22;12046;44.702;10.622;2023-08-31T13:48:22;30.40;77.90
23731;DHT22;12046;44.702;10.622;2023-08-31T13:50:48;30.40;77.70
23731;DHT22;12046;44.702;10.622;2023-08-31T13:53:23;30.30;77.80
23731;DHT22;12046;44.702;10.622;2023-08-31T13:55:49;30.40;77.80
23731;DHT22;12046;44.702;10.622;2023-08-31T13:58:23;30.30;77.70
23731;DHT22;12046;44.702;10.622;2023-08-31T14:00:49;30.20;77.50
23731;DHT22;12046;44.702;10.622;2023-08-31T14:03:14;30.10;77.50
23731;DHT22;12046;44.702;10.622;2023-08-31T14:05:47;30.00;77.80
23731;DHT22;12046;44.702;10.622;2023-08-31T14:08:18;30.00;78.20
23731;DHT22;12046;44.702;10.622;2023-08-31T14:10:44;30.00;78.20
23731;DHT22;12046;44.702;10.622;2023-08-31T14:13:09;30.10;78.20
23731;DHT22;12046;44.702;10.622;2023-08-31T14:15:38;30.20;78.00
23731;DHT22;12046;44.702;10.622;2023-08-31T14:18:14;30.20;77.40
23731;DHT22;12046;44.702;10.622;2023-08-31T14:20:40;30.30;77.40
23731;DHT22;12046;44.702;10.622;2023-08-31T14:23:06;30.30;77.40
23731;DHT22;12046;44.702;10.622;2023-08-31T14:25:38;30.40;77.30
23731;DHT22;12046;44.702;10.622;2023-08-31T14:28:07;30.40;77.20
23731;DHT22;12046;44.702;10.622;2023-08-31T14:30:38;30.60;76.60
23731;DHT22;12046;44.702;10.622;2023-08-31T14:33:04;30.70;76.50
23731;DHT22;12046;44.702;10.622;2023-08-31T14:35:30;30.80;76.10
23731;DHT22;12046;44.702;10.622;2023-08-31T14:37:57;30.90;75.80
23731;DHT22;12046;44.702;10.622;2023-08-31T14:40:23;30.90;75.10
23731;DHT22;12046;44.702;10.622;2023-08-31T14:42:49;30.90;74.60
23731;DHT22;12046;44.702;10.622;2023-08-31T14:45:15;30.80;74.40
23731;DHT22;12046;44.702;10.622;2023-08-31T14:47:41;30.70;74.50
23731;DHT22;12046;44.702;10.622;2023-08-31T14:50:07;30.70;75.30
23731;DHT22;12046;44.702;10.622;2023-08-31T14:52:33;30.60;74.90
23731;DHT22;12046;44.702;10.622;2023-08-31T14:55:00;30.60;75.50
23731;DHT22;12046;44.702;10.622;2023-08-31T14:57:25;30.40;75.70
23731;DHT22;12046;44.702;10.622;2023-08-31T14:59:51;30.40;75.90
23731;DHT22;12046;44.702;10.622;2023-08-31T15:02:22;30.30;76.00
23731;DHT22;12046;44.702;10.622;2023-08-31T15:04:48;30.20;76.30
23731;DHT22;12046;44.702;10.622;2023-08-31T15:07:17;30.00;76.40
23731;DHT22;12046;44.702;10.622;2023-08-31T15:09:44;29.90;76.60
23731;DHT22;12046;44.702;10.622;2023-08-31T15:12:10;29.80;76.80
23731;DHT22;12046;44.702;10.622;2023-08-31T15:14:36;29.70;77.00
23731;DHT22;12046;44.702;10.622;2023-08-31T15:17:04;29.70;77.00
23731;DHT22;12046;44.702;10.622;2023-08-31T15:19:30;29.60;77.00
23731;DHT22;12046;44.702;10.622;2023-08-31T15:21:58;29.50;77.00
23731;DHT22;12046;44.702;10.622;2023-08-31T15:24:24;29.40;77.10
23731;DHT22;12046;44.702;10.622;2023-08-31T15:26:50;29.40;77.20
23731;DHT22;12046;44.702;10.622;2023-08-31T15:29:16;29.30;77.30
23731;DHT22;12046;44.702;10.622;2023-08-31T15:31:41;29.30;77.50
23731;DHT22;12046;44.702;10.622;2023-08-31T15:34:10;29.20;77.70
23731;DHT22;12046;44.702;10.622;2023-08-31T15:36:36;29.10;78.00
23731;DHT22;12046;44.702;10.622;2023-08-31T15:39:02;29.10;78.10
23731;DHT22;12046;44.702;10.622;2023-08-31T15:41:28;29.00;78.90
23731;DHT22;12046;44.702;10.622;2023-08-31T15:44:02;29.00;78.30
23731;DHT22;12046;44.702;10.622;2023-08-31T15:46:29;28.90;78.30
23731;DHT22;12046;44.702;10.622;2023-08-31T15:48:55;28.90;78.30
23731;DHT22;12046;44.702;10.622;2023-08-31T15:51:20;28.80;78.30
23731;DHT22;12046;44.702;10.622;2023-08-31T15:53:46;28.80;78.40
23731;DHT22;12046;44.702;10.622;2023-08-31T15:56:12;28.80;78.50
23731;DHT22;12046;44.702;10.622;2023-08-31T15:58:38;28.80;78.70
23731;DHT22;12046;44.702;10.622;2023-08-31T16:01:09;28.80;78.80
23731;DHT22;12046;44.702;10.622;2023-08-31T16:03:40;28.70;78.70
23731;DHT22;12046;44.702;10.622;2023-08-31T16:06:09;28.70;78.80
23731;DHT22;12046;44.702;10.622;2023-08-31T16:08:49;28.60;78.70
23731;DHT22;12046;44.702;10.622;2023-08-31T16:11:16;28.60;78.90
23731;DHT22;12046;44.702;10.622;2023-08-31T16:13:43;28.50;78.90
23731;DHT22;12046;44.702;10.622;2023-08-31T16:16:12;28.50;79.00
23731;DHT22;12046;44.702;10.622;2023-08-31T16:18:37;28.50;79.00
23731;DHT22;12046;44.702;10.622;2023-08-31T16:21:03;28.50;79.00
23731;DHT22;12046;44.702;10.622;2023-08-31T16:23:36;28.50;79.00
23731;DHT22;12046;44.702;10.622;2023-08-31T16:26:02;28.50;78.90
23731;DHT22;12046;44.702;10.622;2023-08-31T16:28:28;28.50;78.90
23731;DHT22;12046;44.702;10.622;2023-08-31T16:30:56;28.40;78.80
23731;DHT22;12046;44.702;10.622;2023-08-31T16:33:22;28.30;78.80
23731;DHT22;12046;44.702;10.622;2023-08-31T16:35:47;28.30;78.90
23731;DHT22;12046;44.702;10.622;2023-08-31T16:38:13;28.20;79.00
23731;DHT22;12046;44.702;10.622;2023-08-31T16:40:39;28.10;79.10
23731;DHT22;12046;44.702;10.622;2023-08-31T16:43:08;28.10;79.20
23731;DHT22;12046;44.702;10.622;2023-08-31T16:45:33;28.00;79.40
23731;DHT22;12046;44.702;10.622;2023-08-31T16:47:59;28.00;79.60
23731;DHT22;12046;44.702;10.622;2023-08-31T16:50:32;28.00;79.80
23731;DHT22;12046;44.702;10.622;2023-08-31T16:52:58;27.90;79.90
23731;DHT22;12046;44.702;10.622;2023-08-31T16:55:24;27.90;80.10
23731;DHT22;12046;44.702;10.622;2023-08-31T16:57:55;27.80;80.00
23731;DHT22;12046;44.702;10.622;2023-08-31T17:00:29;27.80;79.90
23731;DHT22;12046;44.702;10.622;2023-08-31T17:02:54;27.70;79.80
23731;DHT22;12046;44.702;10.622;2023-08-31T17:05:29;27.70;79.80
23731;DHT22;12046;44.702;10.622;2023-08-31T17:07:58;27.60;80.00
23731;DHT22;12046;44.702;10.622;2023-08-31T17:10:23;27.50;80.10
23731;DHT22;12046;44.702;10.622;2023-08-31T17:12:49;27.50;80.40
23731;DHT22;12046;44.702;10.622;2023-08-31T17:15:15;27.50;80.60
23731;DHT22;12046;44.702;10.622;2023-08-31T17:17:49;27.40;80.70
23731;DHT22;12046;44.702;10.622;2023-08-31T17:20:19;27.40;80.80
23731;DHT22;12046;44.702;10.622;2023-08-31T17:22:55;27.30;80.90
23731;DHT22;12046;44.702;10.622;2023-08-31T17:25:23;27.20;81.10
23731;DHT22;12046;44.702;10.622;2023-08-31T17:27:49;27.10;81.20
23731;DHT22;12046;44.702;10.622;2023-08-31T17:30:15;27.00;81.40
23731;DHT22;12046;44.702;10.622;2023-08-31T17:32:41;27.00;81.60
23731;DHT22;12046;44.702;10.622;2023-08-31T17:35:07;26.90;81.80
23731;DHT22;12046;44.702;10.622;2023-08-31T17:37:33;26.80;82.00
23731;DHT22;12046;44.702;10.622;2023-08-31T17:39:59;26.80;82.20
23731;DHT22;12046;44.702;10.622;2023-08-31T17:42:30;26.70;82.30
23731;DHT22;12046;44.702;10.622;2023-08-31T17:44:56;26.70;82.50
23731;DHT22;12046;44.702;10.622;2023-08-31T17:47:22;26.70;82.70
23731;DHT22;12046;44.702;10.622;2023-08-31T17:49:48;26.60;83.00
23731;DHT22;12046;44.702;10.622;2023-08-31T17:52:13;26.60;83.40
23731;DHT22;12046;44.702;10.622;2023-08-31T17:54:42;26.50;83.70
23731;DHT22;12046;44.702;10.622;2023-08-31T17:57:08;26.50;84.00
23731;DHT22;12046;44.702;10.622;2023-08-31T17:59:35;26.40;84.20
23731;DHT22;12046;44.702;10.622;2023-08-31T18:02:04;26.40;84.50
23731;DHT22;12046;44.702;10.622;2023-08-31T18:04:30;26.30;84.70
23731;DHT22;12046;44.702;10.622;2023-08-31T18:06:57;26.30;84.90
23731;DHT22;12046;44.702;10.622;2023-08-31T18:09:23;26.20;85.10
23731;DHT22;12046;44.702;10.622;2023-08-31T18:11:52;26.20;85.40